Time;durP1;ratioP1;P1;durP2;ratioP2;P2;SDS_P1;SDS_P2;PMS_P1;PMS_P2;Temp;Humidity;BMP_temperature;BMP_pressure;BME280_temperature;BME280_humidity;BME280_pressure;Samples;Min_cycle;Max_cycle;Signal;HPM_P1;HPM_P2
2023/01/17 00:00:29;;;;;;;68.72;11.63;;;7.70;92.40;;;;;;5083799;28;20055;-58
2023/01/17 00:02:56;;;;;;;68.38;11.50;;;7.70;92.40;;;;;;5083746;28;20091;-58
2023/01/17 00:10:54;;;;;;;61.30;11.95;;;7.70;92.40;;;;;;5097850;28;20050;-58
2023/01/17 00:13:19;;;;;;;61.97;10.60;;;7.70;92.50;;;;;;5100529;28;20032;-58
2023/01/17 00:15:45;;;;;;;69.20;11.02;;;7.60;92.40;;;;;;5084696;28;20062;-58
2023/01/17 00:18:10;;;;;;;68.18;10.98;;;7.60;92.40;;;;;;5100493;28;20029;-58
2023/01/17 00:26:12;;;;;;;51.50;9.05;;;7.60;92.40;;;;;;5083621;28;20039;-58
2023/01/17 01:35:21;;;;;;;40.53;8.65;;;7.50;92.90;;;;;;5097350;28;20040;-58
2023/01/17 01:37:47;;;;;;;49.63;9.95;;;7.50;92.90;;;;;;5082879;28;20033;-58
2023/01/17 01:40:13;;;;;;;36.40;9.13;;;7.50;92.90;;;;;;5099541;28;20037;-58
2023/01/17 01:42:52;;;;;;;43.67;8.43;;;7.50;92.90;;;;;;5099808;28;20040;-58
2023/01/17 01:45:23;;;;;;;34.95;8.48;;;7.40;92.90;;;;;;5083825;28;20118;-58
2023/01/17 01:47:49;;;;;;;36.83;8.63;;;7.40;92.80;;;;;;5084158;28;20085;-58
2023/01/17 01:50:14;;;;;;;27.85;7.97;;;7.40;92.80;;;;;;5082788;28;20051;-58
2023/01/17 01:52:43;;;;;;;35.83;7.45;;;7.40;92.60;;;;;;5083750;28;20020;-58
2023/01/17 01:55:17;;;;;;;31.42;7.88;;;7.40;92.70;;;;;;5086176;28;20028;-58
2023/01/17 01:57:45;;;;;;;25.55;6.78;;;7.40;92.70;;;;;;5103140;28;20028;-58
2023/01/17 02:00:18;;;;;;;41.88;7.43;;;7.40;92.70;;;;;;5085958;28;20024;-58
2023/01/17 02:02:45;;;;;;;28.10;7.57;;;7.40;92.70;;;;;;5086204;28;20079;-58
2023/01/17 02:05:10;;;;;;;30.40;7.82;;;7.40;92.60;;;;;;5085935;28;20027;-58
2023/01/17 02:07:42;;;;;;;24.17;6.68;;;7.40;92.60;;;;;;5086037;28;20029;-58
2023/01/17 02:10:08;;;;;;;20.85;6.82;;;7.30;92.50;;;;;;5085699;28;20048;-58
2023/01/17 02:12:34;;;;;;;24.02;6.80;;;7.30;92.50;;;;;;5085664;28;20035;-58
2023/01/17 02:14:59;;;;;;;20.00;6.38;;;7.30;92.40;;;;;;5085818;28;20064;-58
2023/01/17 02:17:25;;;;;;;23.23;7.15;;;7.30;92.40;;;;;;5102656;28;20029;-58
2023/01/17 02:20:11;;;;;;;21.58;5.82;;;7.30;92.40;;;;;;5087138;28;20038;-58
2023/01/17 02:22:43;;;;;;;27.48;6.75;;;7.30;92.40;;;;;;5087153;28;20124;-58
2023/01/17 02:25:36;;;;;;;40.33;8.32;;;7.20;92.50;;;;;;5087232;28;20028;-58
2023/01/17 02:28:22;;;;;;;19.20;6.32;;;7.20;92.40;;;;;;5087142;28;20032;-58
2023/01/17 02:30:49;;;;;;;19.48;5.72;;;7.20;92.40;;;;;;5101324;28;20115;-58
2023/01/17 02:33:20;;;;;;;21.52;6.25;;;7.20;92.30;;;;;;5085427;28;20105;-58
2023/01/17 02:36:06;;;;;;;26.35;6.53;;;7.20;92.30;;;;;;5087025;28;20021;-58
2023/01/17 02:38:59;;;;;;;24.38;6.55;;;7.20;92.30;;;;;;5086968;28;20100;-58
2023/01/17 02:41:28;;;;;;;25.58;6.32;;;7.20;92.30;;;;;;5092504;28;20090;-58
2023/01/17 02:43:54;;;;;;;23.92;5.88;;;7.20;92.30;;;;;;5085187;28;20173;-58
2023/01/17 02:46:19;;;;;;;25.63;6.35;;;7.10;92.30;;;;;;5086721;28;20147;-58
2023/01/17 02:48:45;;;;;;;33.75;6.55;;;7.10;92.30;;;;;;5102213;28;20029;-58
2023/01/17 02:51:15;;;;;;;19.85;6.65;;;7.10;92.40;;;;;;5085069;28;20028;-58
2023/01/17 02:54:16;;;;;;;21.88;6.05;;;7.10;92.60;;;;;;5102085;28;20112;-58
2023/01/17 02:56:49;;;;;;;21.23;5.85;;;7.10;92.60;;;;;;5084940;28;20037;-58
2023/01/17 02:59:21;;;;;;;25.27;6.22;;;7.20;92.60;;;;;;5102017;28;20040;-58
2023/01/17 03:01:59;;;;;;;20.38;6.15;;;7.10;92.90;;;;;;5084911;28;20021;-58
2023/01/17 03:04:47;;;;;;;18.27;6.07;;;7.10;92.70;;;;;;5085146;28;20047;-58
2023/01/17 03:07:16;;;;;;;15.32;5.32;;;7.20;92.70;;;;;;5084950;28;20039;-58
2023/01/17 03:09:44;;;;;;;17.27;4.95;;;7.10;92.60;;;;;;5084684;28;20029;-58
2023/01/17 03:12:10;;;;;;;21.10;5.40;;;7.10;92.60;;;;;;5084583;28;20088;-58
2023/01/17 03:14:35;;;;;;;19.30;5.18;;;7.10;92.60;;;;;;5084672;28;20036;-58
2023/01/17 03:17:01;;;;;;;20.75;5.70;;;7.10;92.70;;;;;;5086194;28;20349;-58
2023/01/17 03:19:26;;;;;;;19.80;6.03;;;7.10;92.70;;;;;;5101459;28;20028;-58
2023/01/17 03:21:52;;;;;;;18.02;6.15;;;7.10;92.70;;;;;;5101426;28;20083;-58
2023/01/17 03:24:18;;;;;;;17.75;6.25;;;7.10;92.70;;;;;;5086060;28;20043;-58
2023/01/17 03:26:43;;;;;;;20.10;6.47;;;7.10;92.70;;;;;;5084332;28;20028;-58
2023/01/17 03:29:10;;;;;;;16.10;5.38;;;7.10;92.70;;;;;;5101711;28;20100;-59
2023/01/17 03:31:35;;;;;;;22.42;6.07;;;7.10;92.70;;;;;;5084334;28;20028;-58
2023/01/17 03:34:01;;;;;;;19.33;6.38;;;7.10;92.70;;;;;;5085857;28;20038;-58
2023/01/17 03:36:26;;;;;;;17.73;5.75;;;7.10;92.70;;;;;;5084210;28;20070;-58
2023/01/17 03:38:52;;;;;;;20.05;6.32;;;7.10;92.70;;;;;;5101223;28;20109;-58
2023/01/17 03:41:17;;;;;;;18.45;5.47;;;7.10;92.80;;;;;;5085625;28;20052;-58
2023/01/17 03:43:43;;;;;;;17.75;5.35;;;7.10;92.80;;;;;;5085430;28;20088;-58
2023/01/17 03:46:18;;;;;;;13.95;5.10;;;7.10;92.80;;;;;;5101167;28;20039;-58
2023/01/17 03:48:44;;;;;;;11.10;5.35;;;7.10;92.80;;;;;;5084277;28;20046;-58
2023/01/17 03:51:09;;;;;;;13.90;5.32;;;7.10;92.80;;;;;;5084037;28;20025;-58
2023/01/17 03:53:35;;;;;;;14.57;5.40;;;7.00;92.70;;;;;;5100932;28;20061;-58
2023/01/17 03:56:00;;;;;;;14.00;5.13;;;7.10;93.00;;;;;;5100777;28;20074;-58
2023/01/17 03:58:26;;;;;;;14.13;4.70;;;7.10;92.80;;;;;;5085430;28;20033;-58
2023/01/17 04:00:51;;;;;;;12.95;5.32;;;7.10;92.70;;;;;;5083718;28;20034;-58
2023/01/17 04:03:17;;;;;;;15.38;5.28;;;7.00;93.00;;;;;;5083625;28;20091;-58
2023/01/17 04:05:42;;;;;;;15.38;5.35;;;7.00;92.70;;;;;;5085204;28;20040;-58
2023/01/17 04:08:08;;;;;;;16.77;5.40;;;7.00;92.70;;;;;;5085320;28;20028;-58
2023/01/17 04:10:34;;;;;;;15.73;4.85;;;7.00;92.70;;;;;;5100633;28;20028;-58
2023/01/17 04:12:59;;;;;;;13.88;5.75;;;7.00;92.60;;;;;;5085155;28;20033;-58
2023/01/17 04:15:25;;;;;;;17.30;5.25;;;7.00;92.60;;;;;;5100188;28;20439;-58
2023/01/17 04:17:50;;;;;;;15.52;5.45;;;7.00;92.60;;;;;;5100632;28;20028;-58
2023/01/17 04:20:20;;;;;;;13.82;5.13;;;7.00;92.60;;;;;;5083332;28;20047;-59
2023/01/17 04:22:46;;;;;;;12.38;4.70;;;7.00;92.60;;;;;;5083585;28;20037;-58
2023/01/17 04:25:11;;;;;;;14.02;4.85;;;7.00;92.60;;;;;;5100380;28;20025;-57
2023/01/17 04:27:37;;;;;;;13.95;5.32;;;7.00;92.70;;;;;;5084672;28;20048;-58
2023/01/17 04:30:03;;;;;;;16.67;5.72;;;6.90;92.70;;;;;;5100122;28;20046;-58
2023/01/17 04:32:28;;;;;;;12.52;5.85;;;7.00;92.70;;;;;;5084677;28;20059;-58
2023/01/17 04:34:54;;;;;;;20.30;5.85;;;7.00;92.70;;;;;;5100276;28;20024;-57
2023/01/17 04:37:19;;;;;;;33.47;6.70;;;6.90;92.70;;;;;;5084909;28;20028;-58
2023/01/17 04:39:45;;;;;;;38.08;7.97;;;6.90;92.60;;;;;;5084960;28;20105;-58
2023/01/17 04:42:11;;;;;;;41.30;9.10;;;6.90;92.60;;;;;;5084793;28;20095;-58
2023/01/17 04:44:36;;;;;;;52.72;7.90;;;6.90;92.70;;;;;;5099892;28;20044;-58
2023/01/17 04:47:02;;;;;;;46.58;8.18;;;6.90;92.70;;;;;;5084434;28;20055;-58
2023/01/17 04:49:28;;;;;;;44.97;8.50;;;6.90;92.70;;;;;;5083172;28;20055;-58
2023/01/17 04:51:53;;;;;;;57.10;9.10;;;6.90;92.70;;;;;;5100179;28;20094;-58
2023/01/17 04:54:19;;;;;;;52.75;8.85;;;6.80;92.60;;;;;;5084730;28;20033;-58
2023/01/17 04:56:44;;;;;;;40.03;9.50;;;6.80;92.70;;;;;;5083481;28;20025;-58
2023/01/17 04:59:10;;;;;;;59.83;10.18;;;6.80;92.60;;;;;;5084561;28;20086;-58
2023/01/17 05:01:35;;;;;;;58.42;8.43;;;6.80;92.60;;;;;;5100041;28;20717;-58
2023/01/17 05:04:01;;;;;;;60.83;8.48;;;6.80;92.70;;;;;;5083225;28;20071;-58
2023/01/17 05:06:26;;;;;;;54.95;7.88;;;6.80;92.60;;;;;;5084549;28;20372;-58
2023/01/17 05:08:52;;;;;;;43.13;7.65;;;6.80;92.60;;;;;;5100005;28;20107;-58
2023/01/17 05:11:18;;;;;;;36.67;9.07;;;6.80;92.90;;;;;;5084725;28;20319;-58
2023/01/17 05:13:43;;;;;;;50.70;8.80;;;6.80;92.70;;;;;;5099781;28;20080;-58
2023/01/17 05:16:09;;;;;;;48.45;8.07;;;6.80;92.70;;;;;;5082956;28;20032;-58
2023/01/17 05:18:34;;;;;;;44.10;8.10;;;6.80;92.70;;;;;;5084409;28;20032;-58
2023/01/17 05:21:01;;;;;;;43.22;8.23;;;6.70;92.70;;;;;;5099838;28;20028;-58
2023/01/17 05:23:27;;;;;;;44.95;7.95;;;6.80;92.80;;;;;;5082825;28;20039;-58
2023/01/17 05:25:52;;;;;;;49.53;8.10;;;6.70;92.70;;;;;;5099748;28;20032;-58
2023/01/17 05:28:18;;;;;;;32.03;7.30;;;6.70;92.80;;;;;;5102142;28;20033;-58
2023/01/17 05:30:43;;;;;;;42.10;7.70;;;6.70;92.80;;;;;;5103706;28;20461;-58
2023/01/17 05:33:09;;;;;;;41.00;6.88;;;6.70;92.80;;;;;;5088112;28;20388;-58
2023/01/17 05:35:34;;;;;;;34.92;6.75;;;6.70;92.70;;;;;;5103663;28;20020;-58
2023/01/17 05:38:00;;;;;;;41.00;8.18;;;6.70;92.60;;;;;;5103628;28;20032;-58
2023/01/17 05:40:28;;;;;;;35.78;6.95;;;6.70;92.60;;;;;;5103304;28;20395;-58
2023/01/17 05:42:54;;;;;;;35.22;7.38;;;6.60;92.60;;;;;;5103295;28;20041;-58
2023/01/17 05:45:23;;;;;;;40.85;7.05;;;6.70;92.60;;;;;;5086317;28;20128;-58
2023/01/17 05:47:49;;;;;;;42.92;6.82;;;6.70;92.70;;;;;;5086343;28;20043;-58
2023/01/17 05:50:19;;;;;;;40.85;6.93;;;6.70;92.60;;;;;;5087859;28;20028;-58
2023/01/17 05:52:55;;;;;;;39.95;6.40;;;6.60;92.60;;;;;;5086636;28;20032;-58
2023/01/17 05:55:21;;;;;;;30.23;6.10;;;6.60;92.60;;;;;;5102242;28;20044;-58
2023/01/17 05:57:47;;;;;;;26.77;5.90;;;6.60;92.60;;;;;;5087384;28;20044;-58
2023/01/17 06:00:13;;;;;;;31.45;5.68;;;6.60;92.60;;;;;;5086249;28;20105;-58
2023/01/17 06:02:38;;;;;;;34.67;5.60;;;6.60;92.60;;;;;;5103162;28;20033;-58
2023/01/17 06:05:04;;;;;;;22.73;5.13;;;6.60;92.60;;;;;;5087290;28;20348;-58
2023/01/17 06:07:30;;;;;;;38.35;5.35;;;6.60;92.60;;;;;;5087498;28;20472;-58
2023/01/17 06:09:55;;;;;;;27.15;4.80;;;6.60;92.60;;;;;;5087591;28;20044;-58
2023/01/17 06:12:21;;;;;;;24.10;5.40;;;6.60;92.60;;;;;;5102866;28;20084;-58
2023/01/17 06:14:47;;;;;;;15.95;4.80;;;6.60;92.70;;;;;;5087351;28;20031;-58
2023/01/17 06:17:12;;;;;;;22.38;5.22;;;6.50;92.70;;;;;;5087304;28;20122;-58
2023/01/17 06:19:38;;;;;;;25.88;4.80;;;6.50;92.80;;;;;;5102700;28;20460;-57
2023/01/17 06:22:03;;;;;;;26.70;5.18;;;6.50;92.80;;;;;;5085849;28;20113;-58
2023/01/17 06:24:29;;;;;;;21.67;4.60;;;6.60;93.00;;;;;;5102759;28;20037;-58
2023/01/17 06:26:55;;;;;;;20.95;4.93;;;6.50;92.90;;;;;;5102644;28;20032;-58
2023/01/17 06:29:21;;;;;;;24.58;4.82;;;6.50;93.00;;;;;;5102948;28;20080;-58
2023/01/17 06:31:47;;;;;;;19.50;4.63;;;6.50;93.10;;;;;;5087183;28;20039;-58
2023/01/17 06:34:12;;;;;;;23.95;4.53;;;6.50;93.10;;;;;;5102612;28;20043;-58
2023/01/17 06:36:38;;;;;;;22.73;4.55;;;6.50;93.10;;;;;;5086972;28;20104;-58
2023/01/17 06:39:03;;;;;;;22.83;4.45;;;6.50;93.10;;;;;;5086692;28;20054;-58
2023/01/17 06:41:29;;;;;;;17.00;3.63;;;6.50;93.10;;;;;;5085408;28;20352;-57
2023/01/17 06:43:55;;;;;;;14.07;3.55;;;6.50;93.10;;;;;;5102329;28;20032;-57
2023/01/17 06:46:20;;;;;;;16.35;3.55;;;6.40;93.10;;;;;;5086669;28;20097;-58
2023/01/17 06:48:47;;;;;;;15.73;3.20;;;6.40;93.10;;;;;;5085421;28;20024;-58
2023/01/17 06:51:13;;;;;;;19.50;4.13;;;6.40;93.10;;;;;;5086824;28;20084;-58
2023/01/17 06:53:39;;;;;;;22.65;3.88;;;6.40;93.10;;;;;;5102208;28;20346;-57
2023/01/17 06:56:05;;;;;;;15.77;3.58;;;6.40;93.10;;;;;;5101906;28;20074;-58
2023/01/17 06:58:30;;;;;;;17.60;3.50;;;6.40;93.10;;;;;;5100759;28;20533;-58
2023/01/17 07:00:56;;;;;;;18.95;3.45;;;6.40;93.10;;;;;;5093934;28;20047;-58
2023/01/17 07:03:23;;;;;;;11.88;3.22;;;6.40;93.10;;;;;;5092264;28;20036;-57
2023/01/17 07:05:49;;;;;;;17.48;3.30;;;6.40;93.10;;;;;;5093832;28;20032;-58
2023/01/17 07:08:15;;;;;;;10.63;3.45;;;6.40;93.00;;;;;;5084854;28;20098;-57
2023/01/17 07:10:43;;;;;;;9.38;3.10;;;6.40;93.00;;;;;;5088184;28;20020;-58
2023/01/17 07:13:09;;;;;;;8.50;3.25;;;6.30;93.00;;;;;;5085689;28;20028;-58
2023/01/17 07:15:35;;;;;;;11.52;2.95;;;6.30;93.00;;;;;;5102018;28;20540;-58
2023/01/17 07:18:01;;;;;;;8.98;3.17;;;6.30;93.00;;;;;;5071439;28;20038;-58
2023/01/17 07:20:26;;;;;;;12.02;3.63;;;6.30;93.00;;;;;;5085778;28;20034;-58
2023/01/17 07:22:52;;;;;;;11.00;2.63;;;6.30;93.00;;;;;;5094361;28;20116;-58
2023/01/17 07:25:18;;;;;;;11.57;3.30;;;6.30;93.00;;;;;;5101488;28;20024;-58
2023/01/17 07:27:45;;;;;;;13.88;3.00;;;6.30;93.00;;;;;;5101169;28;20402;-58
2023/01/17 07:30:11;;;;;;;13.23;2.92;;;6.30;93.00;;;;;;5098938;28;20422;-58
2023/01/17 07:32:36;;;;;;;5.97;2.58;;;6.30;93.00;;;;;;5106091;28;20024;-57
2023/01/17 07:35:02;;;;;;;14.02;2.35;;;6.30;93.00;;;;;;5104518;28;20214;-58
2023/01/17 07:37:27;;;;;;;14.02;3.10;;;6.30;92.90;;;;;;5104464;28;20032;-57
2023/01/17 07:39:53;;;;;;;13.23;2.97;;;6.30;92.90;;;;;;5104894;28;20142;-58
2023/01/17 07:42:19;;;;;;;12.45;2.80;;;6.30;92.90;;;;;;5104426;28;20024;-58
2023/01/17 07:44:45;;;;;;;23.48;3.28;;;6.30;92.90;;;;;;5104279;28;20032;-58
2023/01/17 07:47:11;;;;;;;16.95;2.80;;;6.30;92.80;;;;;;5104232;28;20106;-58
2023/01/17 07:49:36;;;;;;;16.92;3.35;;;6.30;92.80;;;;;;5104172;28;20020;-58
2023/01/17 07:52:03;;;;;;;22.55;3.65;;;6.30;92.80;;;;;;5104219;28;20024;-58
2023/01/17 07:54:28;;;;;;;27.70;3.28;;;6.30;92.70;;;;;;5105590;28;20081;-58
2023/01/17 07:56:54;;;;;;;32.03;3.72;;;6.30;92.70;;;;;;5104224;28;20020;-58
2023/01/17 07:59:19;;;;;;;17.15;3.83;;;6.30;92.70;;;;;;5105521;28;20058;-58
2023/01/17 08:01:45;;;;;;;24.48;3.55;;;6.30;92.60;;;;;;5105358;28;20032;-58
2023/01/17 08:04:10;;;;;;;28.95;3.95;;;6.30;92.70;;;;;;5093271;28;20836;-58
2023/01/17 08:06:36;;;;;;;24.30;3.72;;;6.30;92.60;;;;;;5080956;28;20024;-58
2023/01/17 08:09:02;;;;;;;21.17;3.72;;;6.20;92.60;;;;;;5083835;28;20089;-58
2023/01/17 08:11:27;;;;;;;23.10;3.30;;;6.30;92.60;;;;;;5083654;28;20025;-58
2023/01/17 08:13:58;;;;;;;24.80;3.03;;;6.30;92.60;;;;;;5083709;28;20460;-58
2023/01/17 08:16:23;;;;;;;21.38;3.35;;;6.30;92.60;;;;;;5083613;28;20069;-58
2023/01/17 08:18:49;;;;;;;34.80;4.63;;;6.20;92.60;;;;;;5070992;28;20100;-58
2023/01/17 08:21:15;;;;;;;28.65;3.90;;;6.30;92.70;;;;;;5063431;28;20033;-58
2023/01/17 08:23:50;;;;;;;28.60;3.35;;;6.20;92.60;;;;;;5064001;28;20078;-58
2023/01/17 08:26:20;;;;;;;16.45;3.38;;;6.30;92.60;;;;;;5079164;28;20062;-58
2023/01/17 08:28:59;;;;;;;16.40;3.10;;;6.30;92.50;;;;;;5084457;28;20043;-58
2023/01/17 08:31:24;;;;;;;20.75;2.95;;;6.30;92.50;;;;;;5071025;28;20021;-58
2023/01/17 08:33:50;;;;;;;31.17;4.07;;;6.20;92.50;;;;;;5084837;28;20048;-58
2023/01/17 08:36:16;;;;;;;22.50;3.08;;;6.30;92.60;;;;;;5099416;28;20050;-58
2023/01/17 08:38:41;;;;;;;44.45;3.70;;;6.30;92.60;;;;;;5082766;28;20024;-58
2023/01/17 08:41:07;;;;;;;22.25;4.13;;;6.20;92.60;;;;;;5084297;28;20034;-58
2023/01/17 08:43:32;;;;;;;31.08;4.03;;;6.30;92.90;;;;;;5079890;28;20048;-57
2023/01/17 08:45:58;;;;;;;26.20;4.25;;;6.30;92.60;;;;;;5085053;28;20136;-58
2023/01/17 08:48:24;;;;;;;22.90;3.50;;;6.30;92.70;;;;;;5083266;28;20024;-58
2023/01/17 08:50:49;;;;;;;43.13;4.28;;;6.30;92.60;;;;;;5104567;28;20429;-58
2023/01/17 08:53:16;;;;;;;41.72;4.90;;;6.30;92.60;;;;;;5083752;28;20033;-58
2023/01/17 08:55:42;;;;;;;46.50;5.20;;;6.30;92.70;;;;;;5082811;28;20103;-58
2023/01/17 08:58:08;;;;;;;26.10;3.85;;;6.30;92.70;;;;;;5083053;28;20040;-57
2023/01/17 09:00:33;;;;;;;33.28;4.28;;;6.30;92.70;;;;;;5077000;28;20029;-58
2023/01/17 09:03:00;;;;;;;46.40;5.25;;;6.30;92.70;;;;;;5084785;28;20092;-58
2023/01/17 09:05:26;;;;;;;31.90;4.38;;;6.30;92.70;;;;;;5087359;28;20033;-58
2023/01/17 09:07:51;;;;;;;32.67;4.40;;;6.30;92.60;;;;;;5083257;28;20032;-58
2023/01/17 09:10:17;;;;;;;45.05;5.22;;;6.30;92.60;;;;;;5077855;28;20029;-58
2023/01/17 09:12:42;;;;;;;36.33;4.85;;;6.30;92.70;;;;;;5067280;28;20040;-58
2023/01/17 09:15:09;;;;;;;24.70;4.05;;;6.30;92.70;;;;;;5086347;28;20024;-58
2023/01/17 09:17:34;;;;;;;45.70;4.90;;;6.30;92.70;;;;;;5084328;28;20433;-58
2023/01/17 09:20:00;;;;;;;24.88;4.60;;;6.30;92.70;;;;;;5082697;28;20029;-58
2023/01/17 09:22:25;;;;;;;29.50;5.13;;;6.30;92.70;;;;;;5081265;28;20055;-58
2023/01/17 09:24:52;;;;;;;30.48;4.30;;;6.30;92.70;;;;;;5086733;28;20036;-58
2023/01/17 09:27:17;;;;;;;31.90;4.28;;;6.30;92.70;;;;;;5083434;28;20036;-58
2023/01/17 09:29:43;;;;;;;20.02;3.67;;;6.40;92.70;;;;;;5086111;28;20044;-58
2023/01/17 09:32:08;;;;;;;34.75;4.20;;;6.30;92.70;;;;;;5085438;28;20017;-58
2023/01/17 09:34:34;;;;;;;23.83;4.43;;;6.40;92.70;;;;;;5087300;28;20339;-58
2023/01/17 09:36:59;;;;;;;27.58;3.90;;;6.40;92.70;;;;;;5083443;28;20036;-58
2023/01/17 09:39:25;;;;;;;25.85;3.70;;;6.40;92.60;;;;;;5086417;28;20039;-58
2023/01/17 09:42:10;;;;;;;31.13;3.75;;;6.40;92.60;;;;;;5093205;28;20036;-58
2023/01/17 09:44:56;;;;;;;41.30;4.55;;;6.40;92.80;;;;;;5085060;28;20036;-58
2023/01/17 09:47:33;;;;;;;31.38;4.20;;;6.50;92.70;;;;;;5082173;28;20041;-58
2023/01/17 09:50:26;;;;;;;24.67;4.80;;;6.40;92.70;;;;;;5076561;28;20360;-58
2023/01/17 09:53:03;;;;;;;17.70;3.95;;;6.50;92.70;;;;;;5086261;28;20096;-58
2023/01/17 09:55:33;;;;;;;36.65;4.88;;;6.50;92.70;;;;;;5065580;28;20033;-58
2023/01/17 09:58:02;;;;;;;31.15;4.80;;;6.50;92.60;;;;;;5080321;28;20033;-58
2023/01/17 10:00:41;;;;;;;25.40;5.43;;;6.50;92.70;;;;;;5065725;28;20033;-58
2023/01/17 10:03:35;;;;;;;27.48;3.92;;;6.50;92.70;;;;;;5065588;28;20110;-58
2023/01/17 10:06:10;;;;;;;32.45;4.75;;;6.50;92.60;;;;;;5086548;28;20115;-58
2023/01/17 10:08:55;;;;;;;45.30;5.28;;;6.50;92.60;;;;;;5086297;28;20029;-58
2023/01/17 10:11:47;;;;;;;27.25;4.85;;;6.60;92.60;;;;;;5079924;28;20025;-58
2023/01/17 10:14:34;;;;;;;25.35;4.35;;;6.60;92.50;;;;;;5087880;28;20368;-58
2023/01/17 10:17:12;;;;;;;34.67;5.10;;;6.60;92.40;;;;;;5066814;28;20025;-58
2023/01/17 10:20:49;;;;;;;38.92;5.40;;;6.60;92.40;;;;;;5081990;28;20106;-58
2023/01/17 10:23:15;;;;;;;36.92;4.78;;;6.60;92.40;;;;;;5024185;28;20414;-58
2023/01/17 10:25:51;;;;;;;44.33;5.22;;;6.60;92.40;;;;;;5024247;28;20054;-58
2023/01/17 10:28:25;;;;;;;;;;;6.60;92.40;;;;;;5044550;28;20041;-58
2023/01/17 10:30:53;;;;;;;34.40;4.88;;;6.60;92.40;;;;;;5095018;28;19919;-57
2023/01/17 10:33:20;;;;;;;29.65;5.43;;;6.60;92.40;;;;;;5086870;28;20051;-58
2023/01/17 10:36:01;;;;;;;41.85;5.70;;;6.60;92.40;;;;;;5098880;28;20108;-58
2023/01/17 10:38:34;;;;;;;41.25;6.15;;;6.60;92.40;;;;;;5069663;28;20104;-58
2023/01/17 10:41:09;;;;;;;43.88;6.78;;;6.70;92.40;;;;;;5114568;28;20074;-58
2023/01/17 10:44:03;;;;;;;58.10;7.47;;;6.70;92.40;;;;;;5053611;28;20037;-58
2023/01/17 10:46:34;;;;;;;69.75;9.05;;;6.70;92.40;;;;;;5069330;28;20059;-58
2023/01/17 10:49:00;;;;;;;57.95;7.30;;;6.70;92.40;;;;;;5096196;28;20033;-58
2023/01/17 10:51:58;;;;;;;44.20;7.28;;;6.80;92.40;;;;;;5074382;28;20131;-58
2023/01/17 10:54:37;;;;;;;54.42;8.18;;;6.80;92.40;;;;;;5078703;28;20446;-58
2023/01/17 10:57:02;;;;;;;62.00;9.45;;;6.80;92.40;;;;;;5084380;28;20025;-58
2023/01/17 10:59:32;;;;;;;82.18;9.05;;;6.80;92.40;;;;;;5083433;28;20365;-58
2023/01/17 11:01:58;;;;;;;71.40;8.60;;;6.80;92.40;;;;;;5067425;28;20044;-58
2023/01/17 11:04:35;;;;;;;97.40;10.13;;;6.80;92.40;;;;;;5064419;28;20033;-58
2023/01/17 11:07:18;;;;;;;90.20;10.10;;;6.80;92.40;;;;;;5080689;28;20063;-58
2023/01/17 11:09:46;;;;;;;77.70;8.93;;;6.90;92.50;;;;;;5082602;28;20092;-58
2023/01/17 11:12:16;;;;;;;65.65;9.52;;;6.90;92.40;;;;;;5101246;28;20158;-58
2023/01/17 11:14:50;;;;;;;62.20;8.93;;;6.90;92.30;;;;;;5101063;28;20153;-58
2023/01/17 11:17:15;;;;;;;60.55;8.70;;;6.90;92.30;;;;;;5082282;28;20032;-58
2023/01/17 11:19:44;;;;;;;74.60;9.88;;;6.90;92.30;;;;;;5089385;28;20116;-61
2023/01/17 11:22:12;;;;;;;83.18;9.63;;;6.90;92.40;;;;;;5098803;28;20060;-61
2023/01/17 11:24:55;;;;;;;91.60;10.40;;;7.00;92.40;;;;;;5083350;28;20033;-58
2023/01/17 11:27:29;;;;;;;99.05;10.98;;;7.20;92.50;;;;;;5062077;28;20450;-58
2023/01/17 11:30:22;;;;;;;152.93;16.27;;;7.00;92.50;;;;;;5074608;28;20028;-58
2023/01/17 11:32:52;;;;;;;126.70;11.52;;;7.00;92.60;;;;;;5084626;28;20048;-58
2023/01/17 11:35:36;;;;;;;144.60;15.80;;;7.00;92.50;;;;;;5080778;28;20036;-58
2023/01/17 11:38:02;;;;;;;102.07;13.65;;;7.10;92.50;;;;;;5107271;28;21088;-58
2023/01/17 11:40:28;;;;;;;119.25;14.05;;;7.10;92.50;;;;;;5084979;28;20092;-60
2023/01/17 11:43:20;;;;;;;125.10;13.10;;;7.00;92.50;;;;;;5084199;28;20043;-58
2023/01/17 11:46:27;;;;;;;117.30;13.73;;;7.10;92.60;;;;;;5068902;28;20493;-60
2023/01/17 11:49:00;;;;;;;;;;;7.10;92.50;;;;;;5122432;27;20407;-59
2023/01/17 11:51:40;;;;;;;123.97;14.25;;;7.10;92.60;;;;;;5119387;28;19908;-59
2023/01/17 11:54:26;;;;;;;99.05;11.30;;;7.10;92.60;;;;;;5114389;28;20028;-58
2023/01/17 11:57:00;;;;;;;;;;;7.10;92.80;;;;;;5118378;28;20032;-59
2023/01/17 11:59:30;;;;;;;118.93;14.43;;;7.10;92.60;;;;;;5117011;28;19919;-59
2023/01/17 12:02:19;;;;;;;104.47;12.80;;;7.20;92.60;;;;;;5100447;28;20028;-58
2023/01/17 12:05:06;;;;;;;106.38;14.13;;;7.20;92.60;;;;;;5113966;28;20416;-59
2023/01/17 12:07:38;;;;;;;100.72;12.65;;;7.20;92.60;;;;;;5088363;28;20055;-58
2023/01/17 12:10:27;;;;;;;130.27;12.60;;;7.20;92.60;;;;;;5121859;28;20045;-58
2023/01/17 12:16:00;;;;;;;99.57;13.32;;;7.20;92.50;;;;;;5120729;28;20035;-59
2023/01/17 12:18:39;;;;;;;80.75;10.25;;;7.20;92.80;;;;;;5117961;28;20055;-59
2023/01/17 12:21:24;;;;;;;97.45;12.13;;;7.20;92.40;;;;;;5094337;28;20470;-59
2023/01/17 12:24:20;;;;;;;92.28;11.82;;;7.30;92.30;;;;;;5108898;28;20040;-59
2023/01/17 12:26:54;;;;;;;154.05;15.73;;;7.30;92.20;;;;;;5121833;28;20032;-59
2023/01/17 12:29:22;;;;;;;130.02;15.27;;;7.30;92.10;;;;;;5100198;28;20054;-59
2023/01/17 12:32:11;;;;;;;121.50;15.45;;;7.30;92.10;;;;;;5098748;28;20080;-59
2023/01/17 12:34:49;;;;;;;176.70;18.38;;;7.40;92.20;;;;;;5096862;28;20304;-59
2023/01/17 12:37:30;;;;;;;139.65;15.50;;;7.40;92.20;;;;;;5108092;28;20028;-58
2023/01/17 12:40:19;;;;;;;112.50;12.90;;;7.40;92.30;;;;;;5092467;28;20032;-58
2023/01/17 12:42:54;;;;;;;109.68;14.52;;;7.40;92.20;;;;;;5113034;28;20062;-59
2023/01/17 12:45:39;;;;;;;116.35;13.25;;;7.40;92.10;;;;;;5094491;28;20039;-59
2023/01/17 12:48:09;;;;;;;121.63;13.88;;;7.40;92.10;;;;;;5096923;28;20055;-58
2023/01/17 12:50:41;;;;;;;108.72;13.05;;;7.40;92.20;;;;;;5099341;28;20024;-59
2023/01/17 12:53:40;;;;;;;106.13;13.05;;;7.40;92.20;;;;;;5101380;28;20038;-58
2023/01/17 12:56:28;;;;;;;101.40;14.35;;;7.40;92.30;;;;;;5112639;28;20032;-59
2023/01/17 12:58:59;;;;;;;94.18;12.50;;;7.40;92.30;;;;;;5112728;28;20043;-59
2023/01/17 13:01:38;;;;;;;117.72;13.25;;;7.40;92.30;;;;;;5103034;28;20036;-58
2023/01/17 13:04:25;;;;;;;108.28;13.05;;;7.40;92.30;;;;;;5100418;28;20025;-58
2023/01/17 13:07:12;;;;;;;81.20;10.20;;;7.40;92.30;;;;;;5086779;28;20494;-58
2023/01/17 13:10:01;;;;;;;112.55;13.63;;;7.40;92.20;;;;;;5101649;28;20043;-59
2023/01/17 13:12:28;;;;;;;118.60;14.65;;;7.40;92.20;;;;;;5100417;28;20048;-59
2023/01/17 13:14:54;;;;;;;128.93;14.48;;;7.40;92.30;;;;;;5090843;28;20033;-59
2023/01/17 13:17:23;;;;;;;115.13;13.45;;;7.40;92.30;;;;;;5095122;28;20472;-58
2023/01/17 13:19:56;;;;;;;99.88;13.73;;;7.40;92.30;;;;;;5095379;28;20036;-58
2023/01/17 13:22:25;;;;;;;114.22;12.82;;;7.40;92.30;;;;;;5084360;28;20050;-58
2023/01/17 13:25:02;;;;;;;86.18;12.88;;;7.40;92.40;;;;;;5091238;28;20199;-59
2023/01/17 13:27:37;;;;;;;109.25;12.95;;;7.40;92.30;;;;;;5084658;28;20036;-59
2023/01/17 13:30:22;;;;;;;104.43;12.07;;;7.40;92.30;;;;;;5085279;28;20036;-58
2023/01/17 13:32:57;;;;;;;114.53;13.57;;;7.40;92.30;;;;;;5097536;28;20127;-59
2023/01/17 13:35:32;;;;;;;108.15;12.30;;;7.40;92.30;;;;;;5096388;28;20021;-59
2023/01/17 13:38:22;;;;;;;109.65;13.88;;;7.40;92.30;;;;;;5084559;28;20074;-59
2023/01/17 13:40:54;;;;;;;105.57;13.48;;;7.40;92.30;;;;;;5101422;28;20025;-59
2023/01/17 13:43:29;;;;;;;137.75;14.77;;;7.40;92.30;;;;;;5089321;28;20028;-59
2023/01/17 13:45:55;;;;;;;135.97;15.17;;;7.40;92.20;;;;;;5087871;28;20024;-59
2023/01/17 13:48:24;;;;;;;133.63;14.73;;;7.40;92.30;;;;;;5087552;28;20097;-59
2023/01/17 13:50:54;;;;;;;125.30;16.05;;;7.40;92.40;;;;;;5088122;28;20029;-59
2023/01/17 13:53:43;;;;;;;94.90;13.02;;;7.40;92.50;;;;;;5093812;28;20073;-59
2023/01/17 13:56:14;;;;;;;111.70;14.88;;;7.50;92.40;;;;;;5097546;28;20091;-59
2023/01/17 13:58:56;;;;;;;122.63;15.10;;;7.40;92.30;;;;;;5106380;28;20135;-59
2023/01/17 14:01:22;;;;;;;125.63;15.70;;;7.50;92.40;;;;;;5104912;28;20032;-59
2023/01/17 14:03:50;;;;;;;127.80;16.30;;;7.50;92.50;;;;;;5102734;28;20043;-59
2023/01/17 14:06:35;;;;;;;136.35;15.45;;;7.50;92.60;;;;;;5091822;28;20033;-59
2023/01/17 14:09:24;;;;;;;147.80;15.60;;;7.40;92.50;;;;;;5093814;28;20056;-59
2023/01/17 14:12:09;;;;;;;148.00;17.42;;;7.40;92.60;;;;;;5103193;28;20055;-59
2023/01/17 14:14:44;;;;;;;197.73;19.43;;;7.40;92.70;;;;;;5093312;28;20055;-59
2023/01/17 14:17:25;;;;;;;153.63;16.40;;;7.40;92.90;;;;;;5086030;28;20056;-59
2023/01/17 14:19:52;;;;;;;313.63;29.42;;;7.40;92.90;;;;;;5094314;28;20019;-59
2023/01/17 14:22:17;;;;;;;172.32;18.17;;;7.40;93.00;;;;;;5089659;28;20084;-59